createdAt,value
2019-05-19T00:03:24.681Z,14.40
2019-05-19T00:08:25.956Z,14.30
2019-05-19T00:13:31.332Z,14.20
2019-05-19T00:18:35.861Z,14.10
2019-05-19T00:23:38.202Z,14.00
2019-05-19T00:28:42.793Z,14.00
2019-05-19T00:33:47.636Z,14.00
2019-05-19T00:38:48.908Z,14.00
2019-05-19T00:43:53.354Z,14.10
2019-05-19T00:49:14.948Z,14.00
2019-05-19T00:54:19.630Z,14.00
2019-05-19T00:59:27.367Z,14.00
2019-05-19T01:04:34.550Z,13.90
2019-05-19T01:09:35.845Z,14.00
2019-05-19T01:14:40.252Z,14.00
2019-05-19T01:19:55.180Z,14.00
2019-05-19T01:24:46.421Z,13.90
2019-05-19T01:29:50.830Z,13.90
2019-05-19T01:34:55.371Z,13.80
2019-05-19T01:39:56.646Z,13.80
2019-05-19T01:45:02.323Z,13.80
2019-05-19T01:50:17.482Z,13.80
2019-05-19T01:55:24.290Z,13.80
2019-05-19T02:00:28.822Z,13.70
2019-05-19T02:05:31.248Z,13.70
2019-05-19T02:10:38.876Z,13.60
2019-05-19T02:15:43.372Z,13.60
2019-05-19T02:20:47.999Z,13.50
2019-05-19T02:25:52.489Z,13.50
2019-05-19T02:31:01.615Z,13.40
2019-05-19T02:36:04.017Z,13.40
2019-05-19T02:41:10.577Z,13.40
2019-05-19T02:46:19.222Z,13.40
2019-05-19T02:51:24.934Z,13.40
2019-05-19T02:56:49.954Z,13.50
2019-05-19T03:02:03.177Z,13.60
2019-05-19T03:07:12.063Z,13.60
2019-05-19T03:12:13.583Z,13.60
2019-05-19T03:17:15.977Z,13.50
2019-05-19T03:22:20.538Z,13.60
2019-05-19T03:27:23.893Z,13.60
2019-05-19T03:32:34.022Z,13.60
2019-05-19T03:37:35.390Z,13.60
2019-05-19T03:42:39.928Z,13.60
2019-05-19T03:47:47.360Z,13.50
2019-05-19T03:53:02.515Z,13.60
2019-05-19T03:58:03.984Z,13.60
2019-05-19T04:03:07.311Z,13.60
2019-05-19T04:08:08.694Z,13.50
2019-05-19T04:13:21.431Z,13.50
2019-05-19T04:18:25.075Z,13.50
2019-05-19T04:23:32.168Z,13.60
2019-05-19T04:28:36.813Z,13.50
2019-05-19T04:33:55.180Z,13.50
2019-05-19T04:38:56.469Z,13.60
2019-05-19T04:44:00.876Z,13.60
2019-05-19T04:49:05.698Z,13.70
2019-05-19T04:54:15.156Z,13.80
2019-05-19T04:59:17.589Z,13.90
2019-05-19T05:04:28.777Z,14.00
2019-05-19T05:09:32.291Z,14.10
2019-05-19T05:14:33.671Z,14.20
2019-05-19T05:19:38.212Z,14.30
2019-05-19T05:24:42.736Z,14.40
2019-05-19T05:29:49.867Z,14.50
2019-05-19T05:34:54.279Z,14.50
2019-05-19T05:39:56.673Z,14.50
2019-05-19T05:44:59.168Z,14.50
2019-05-19T05:50:11.295Z,14.40
2019-05-19T05:55:18.579Z,14.40
2019-05-19T06:00:22.128Z,14.50
2019-05-19T06:05:32.627Z,14.60
2019-05-19T06:10:33.889Z,14.80
2019-05-19T06:15:40.205Z,14.90
2019-05-19T06:20:41.623Z,15.00
2019-05-19T06:25:46.288Z,15.10
2019-05-19T06:30:48.890Z,15.20
2019-05-19T06:35:50.337Z,15.20
2019-05-19T06:40:52.739Z,15.20
2019-05-19T06:45:54.237Z,15.10
2019-05-19T06:50:57.548Z,15.00
2019-05-19T06:56:02.090Z,15.20
2019-05-19T07:01:03.542Z,15.20
2019-05-19T07:06:05.946Z,15.30
2019-05-19T07:11:07.226Z,15.20
2019-05-19T07:16:08.625Z,15.10
2019-05-19T07:21:09.898Z,15.10
2019-05-19T07:26:11.195Z,15.20
2019-05-19T07:31:14.543Z,15.40
2019-05-19T07:36:19.111Z,15.70
2019-05-19T07:41:23.671Z,15.90
2019-05-19T07:46:25.104Z,16.10
2019-05-19T07:51:28.439Z,16.40
2019-05-19T07:56:29.731Z,16.60
2019-05-19T08:01:32.329Z,16.70
2019-05-19T08:06:34.690Z,16.80
2019-05-19T08:11:35.954Z,16.80
2019-05-19T08:16:37.340Z,16.70
2019-05-19T08:21:39.746Z,16.70
2019-05-19T08:26:41.129Z,17.00
2019-05-19T08:31:42.653Z,17.50
2019-05-19T08:36:45.098Z,17.70
2019-05-19T08:41:47.476Z,17.60
2019-05-19T08:46:48.920Z,17.30
2019-05-19T08:51:52.267Z,17.30
2019-05-19T08:56:54.631Z,17.30
2019-05-19T09:01:56.217Z,17.10
2019-05-19T09:06:57.602Z,17.10
2019-05-19T09:11:58.899Z,17.70
2019-05-19T09:17:00.258Z,18.20
2019-05-19T09:22:03.568Z,18.60
2019-05-19T09:27:04.843Z,19.00
2019-05-19T09:32:13.257Z,19.50
2019-05-19T09:37:14.784Z,19.30
2019-05-19T09:42:16.223Z,19.30
2019-05-19T09:47:17.683Z,19.80
2019-05-19T09:52:19.174Z,20.00
2019-05-19T09:57:20.660Z,20.50
2019-05-19T10:02:22.127Z,20.70
2019-05-19T10:07:25.769Z,21.60
2019-05-19T10:12:28.369Z,23.30
2019-05-19T10:17:30.824Z,24.30
2019-05-19T10:22:34.259Z,24.60
2019-05-19T10:27:35.661Z,24.90
2019-05-19T10:32:39.249Z,25.00
2019-05-19T10:37:44.199Z,25.40
2019-05-19T10:42:45.570Z,25.40
2019-05-19T10:47:47.012Z,24.90
2019-05-19T10:52:49.520Z,23.60
2019-05-19T10:57:50.800Z,22.90
2019-05-19T11:02:54.263Z,22.50
2019-05-19T11:07:58.777Z,22.90
2019-05-19T11:13:00.073Z,24.10
2019-05-19T11:18:06.368Z,24.80
2019-05-19T11:23:07.803Z,24.60
2019-05-19T11:28:09.075Z,25.00
2019-05-19T11:33:10.556Z,24.30
2019-05-19T11:38:11.907Z,23.60
2019-05-19T11:43:13.395Z,23.80
2019-05-19T11:48:14.978Z,22.90
2019-05-19T11:53:16.351Z,22.50
2019-05-19T11:58:17.637Z,22.80
2019-05-19T12:03:21.142Z,23.20
2019-05-19T12:08:22.591Z,23.70
2019-05-19T12:13:23.882Z,24.60
2019-05-19T12:18:27.384Z,25.00
2019-05-19T12:23:28.978Z,24.60
2019-05-19T12:28:30.244Z,24.30
2019-05-19T12:33:31.847Z,24.40
2019-05-19T12:38:33.270Z,24.40
2019-05-19T12:43:34.824Z,23.90
2019-05-19T12:48:36.192Z,23.50
2019-05-19T12:53:37.826Z,22.90
2019-05-19T12:58:39.268Z,22.50
2019-05-19T13:03:40.897Z,22.90
2019-05-19T13:08:42.642Z,23.00
2019-05-19T13:13:43.958Z,23.40
2019-05-19T13:18:45.456Z,23.60
2019-05-19T13:23:47.041Z,23.80
2019-05-19T13:28:48.354Z,23.70
2019-05-19T13:33:49.883Z,24.00
2019-05-19T13:38:51.436Z,24.70
2019-05-19T13:43:53.059Z,24.60
2019-05-19T13:48:54.590Z,24.20
2019-05-19T13:53:56.382Z,24.50
2019-05-19T13:58:57.653Z,24.60
2019-05-19T14:04:00.409Z,24.90
2019-05-19T14:09:04.271Z,25.20
2019-05-19T14:14:05.542Z,25.20
2019-05-19T14:19:07.066Z,25.40
2019-05-19T14:24:09.850Z,25.50
2019-05-19T14:29:11.174Z,26.20
2019-05-19T14:34:12.729Z,24.80
2019-05-19T14:39:14.176Z,24.00
2019-05-19T14:44:15.684Z,23.70
2019-05-19T14:49:17.027Z,23.30
2019-05-19T14:54:19.541Z,23.20
2019-05-19T14:59:20.844Z,23.20
2019-05-19T15:04:22.158Z,23.40
2019-05-19T15:09:24.615Z,22.90
2019-05-19T15:14:25.902Z,22.40
2019-05-19T15:19:28.437Z,22.00
2019-05-19T15:24:29.927Z,21.40
2019-05-19T15:29:31.243Z,20.60
2019-05-19T15:34:33.815Z,20.20
2019-05-19T15:39:35.232Z,19.90
2019-05-19T15:44:37.701Z,19.50
2019-05-19T15:49:39.128Z,19.00
2019-05-19T15:54:46.455Z,18.70
2019-05-19T15:59:47.758Z,18.50
2019-05-19T16:04:50.317Z,18.30
2019-05-19T16:09:51.862Z,18.30
2019-05-19T16:14:53.152Z,18.10
2019-05-19T16:19:54.726Z,17.90
2019-05-19T16:24:57.121Z,18.30
2019-05-19T16:29:58.403Z,18.00
2019-05-19T16:35:01.080Z,17.40
2019-05-19T16:40:04.286Z,17.00
2019-05-19T16:45:09.944Z,16.40
2019-05-19T16:50:12.765Z,16.00
2019-05-19T16:55:16.260Z,15.70
2019-05-19T17:00:18.671Z,15.50
2019-05-19T17:05:20.461Z,15.30
2019-05-19T17:10:22.062Z,15.10
2019-05-19T17:15:23.585Z,14.70
2019-05-19T17:20:25.096Z,14.60
2019-05-19T17:25:27.715Z,14.50
2019-05-19T17:30:28.995Z,14.50
2019-05-19T17:35:31.596Z,14.40
2019-05-19T17:40:33.069Z,14.30
2019-05-19T17:45:40.376Z,14.20
2019-05-19T17:50:41.936Z,14.20
2019-05-19T17:55:44.212Z,14.00
2019-05-19T18:00:45.507Z,13.90
2019-05-19T18:05:46.850Z,13.90
2019-05-19T18:10:49.304Z,13.80
2019-05-19T18:15:50.718Z,13.80
2019-05-19T18:20:53.130Z,13.70
2019-05-19T18:25:56.449Z,13.60
2019-05-19T18:30:57.714Z,13.60
2019-05-19T18:36:01.280Z,13.60
2019-05-19T18:41:02.784Z,13.60
2019-05-19T18:46:06.368Z,13.60
2019-05-19T18:51:07.808Z,13.50
2019-05-19T18:56:09.487Z,13.50
2019-05-19T19:01:10.895Z,13.40
2019-05-19T19:06:18.366Z,13.40
2019-05-19T19:11:19.677Z,13.40
2019-05-19T19:16:20.942Z,13.30
2019-05-19T19:21:24.356Z,13.20
2019-05-19T19:26:26.735Z,13.20
2019-05-19T19:31:28.047Z,13.10
2019-05-19T19:36:29.367Z,13.10
2019-05-19T19:41:34.292Z,13.10
2019-05-19T19:46:35.690Z,13.10
2019-05-19T19:51:39.331Z,13.10
2019-05-19T19:56:41.951Z,13.10
2019-05-19T20:01:43.297Z,13.10
2019-05-19T20:06:48.584Z,13.00
2019-05-19T20:11:50.944Z,12.90
2019-05-19T20:16:52.399Z,12.90
2019-05-19T20:21:57.899Z,12.90
2019-05-19T20:27:00.431Z,12.80
2019-05-19T20:32:01.828Z,12.70
2019-05-19T20:37:03.245Z,12.60
2019-05-19T20:42:07.958Z,12.60
2019-05-19T20:47:10.575Z,12.60
2019-05-19T20:52:17.802Z,12.60
2019-05-19T20:57:19.276Z,12.60
2019-05-19T21:02:25.681Z,12.70
2019-05-19T21:07:27.202Z,12.70
2019-05-19T21:12:28.718Z,12.60
2019-05-19T21:17:33.233Z,12.60
2019-05-19T21:22:34.600Z,12.60
2019-05-19T21:27:40.000Z,12.60
2019-05-19T21:32:41.573Z,12.60
2019-05-19T21:37:43.049Z,12.60
2019-05-19T21:42:50.133Z,12.60
2019-05-19T21:47:54.584Z,12.60
2019-05-19T21:52:58.219Z,12.50
2019-05-19T21:58:05.306Z,12.50
2019-05-19T22:03:09.720Z,12.50
2019-05-19T22:08:16.279Z,12.50
2019-05-19T22:13:21.012Z,12.40
2019-05-19T22:18:23.380Z,12.40
2019-05-19T22:23:24.870Z,12.40
2019-05-19T22:28:27.672Z,12.30
2019-05-19T22:33:29.536Z,12.30
2019-05-19T22:38:31.093Z,12.30
2019-05-19T22:43:34.443Z,12.30
2019-05-19T22:48:41.530Z,12.30
2019-05-19T22:53:42.986Z,12.20
2019-05-19T22:58:44.388Z,12.30
2019-05-19T23:03:46.775Z,12.20
2019-05-19T23:08:50.400Z,12.20
2019-05-19T23:13:51.679Z,12.20
2019-05-19T23:18:52.989Z,12.20
2019-05-19T23:23:55.436Z,12.20
2019-05-19T23:28:59.987Z,12.10
2019-05-19T23:34:20.681Z,12.10
2019-05-19T23:39:24.113Z,12.10
2019-05-19T23:44:28.659Z,12.10
2019-05-19T23:49:29.958Z,12.00
2019-05-19T23:54:34.364Z,12.00
2019-05-19T23:59:40.736Z,12.00
